createdAt,value
2022-11-30T00:00:49.827Z,20.00
2022-11-30T00:03:16.218Z,18.63
2022-11-30T00:05:42.654Z,21.33
2022-11-30T00:08:08.916Z,19.20
2022-11-30T00:10:35.210Z,20.50
2022-11-30T00:13:01.467Z,19.63
2022-11-30T00:15:27.874Z,18.73
2022-11-30T00:17:57.644Z,19.60
2022-11-30T00:20:24.383Z,19.53
2022-11-30T00:22:50.655Z,21.03
2022-11-30T00:25:17.032Z,18.70
2022-11-30T00:27:43.345Z,19.33
2022-11-30T00:30:09.835Z,18.73
2022-11-30T00:32:36.086Z,16.47
2022-11-30T00:35:02.346Z,18.50
2022-11-30T00:37:28.616Z,18.07
2022-11-30T00:39:54.917Z,17.33
2022-11-30T00:42:21.205Z,20.20
2022-11-30T00:44:48.829Z,17.60
2022-11-30T00:47:15.195Z,17.97
2022-11-30T00:49:41.455Z,17.30
2022-11-30T00:52:07.824Z,15.87
2022-11-30T00:54:34.115Z,15.47
2022-11-30T00:57:00.459Z,16.43
2022-11-30T00:59:26.729Z,16.40
2022-11-30T01:01:54.342Z,15.17
2022-11-30T01:04:20.856Z,16.60
2022-11-30T01:06:47.246Z,16.43
2022-11-30T01:09:13.526Z,11.93
2022-11-30T01:11:39.847Z,15.30
2022-11-30T01:14:06.112Z,16.73
2022-11-30T01:16:33.154Z,14.33
2022-11-30T01:19:00.170Z,15.23
2022-11-30T01:21:27.402Z,14.43
2022-11-30T01:23:53.778Z,14.63
2022-11-30T01:26:20.382Z,14.17
2022-11-30T01:28:50.183Z,14.03
2022-11-30T01:31:16.850Z,14.30
2022-11-30T01:33:43.232Z,16.23
2022-11-30T01:36:13.518Z,16.30
2022-11-30T01:38:44.341Z,16.37
2022-11-30T01:41:11.707Z,14.60
2022-11-30T01:43:39.453Z,14.33
2022-11-30T01:46:15.786Z,14.37
2022-11-30T01:48:42.097Z,15.00
2022-11-30T01:51:08.373Z,14.37
2022-11-30T01:53:35.159Z,15.03
2022-11-30T01:56:01.619Z,16.00
2022-11-30T01:58:29.289Z,16.30
2022-11-30T02:00:55.707Z,14.07
2022-11-30T02:03:40.823Z,15.40
2022-11-30T02:06:07.674Z,13.35
2022-11-30T02:08:34.219Z,14.67
2022-11-30T02:11:04.031Z,14.80
2022-11-30T02:13:33.055Z,15.30
2022-11-30T02:16:11.992Z,17.40
2022-11-30T02:18:56.995Z,15.17
2022-11-30T02:21:32.385Z,13.55
2022-11-30T02:24:18.933Z,15.13
2022-11-30T02:26:58.230Z,14.33
2022-11-30T02:29:28.192Z,13.87
2022-11-30T02:32:05.067Z,13.30
2022-11-30T02:34:32.944Z,13.10
2022-11-30T02:36:59.949Z,13.53
2022-11-30T02:39:26.260Z,13.93
2022-11-30T02:41:52.533Z,12.17
2022-11-30T02:44:19.434Z,13.77
2022-11-30T02:46:57.234Z,14.90
2022-11-30T02:49:29.914Z,14.60
2022-11-30T02:51:56.788Z,13.33
2022-11-30T02:54:23.428Z,13.90
2022-11-30T02:56:49.693Z,14.50
2022-11-30T02:59:16.058Z,12.67
2022-11-30T03:01:42.529Z,12.83
2022-11-30T03:04:08.910Z,13.27
2022-11-30T03:06:35.212Z,12.67
2022-11-30T03:09:01.629Z,14.10
2022-11-30T03:11:27.999Z,14.20
2022-11-30T03:13:54.264Z,14.43
2022-11-30T03:16:20.621Z,13.77
2022-11-30T03:18:46.948Z,12.30
2022-11-30T03:21:13.280Z,12.37
2022-11-30T03:23:40.856Z,12.87
2022-11-30T03:26:08.144Z,12.27
2022-11-30T03:28:35.334Z,11.70
2022-11-30T03:31:01.639Z,12.05
2022-11-30T03:33:27.921Z,13.07
2022-11-30T03:36:04.368Z,13.03
2022-11-30T03:38:30.715Z,13.10
2022-11-30T03:41:03.988Z,13.53
2022-11-30T03:43:30.387Z,12.10
2022-11-30T03:45:56.684Z,11.90
2022-11-30T03:48:23.552Z,14.80
2022-11-30T03:50:50.450Z,11.80
2022-11-30T03:53:17.486Z,12.70
2022-11-30T03:55:43.861Z,13.50
2022-11-30T03:58:10.257Z,11.57
2022-11-30T04:00:36.827Z,14.30
2022-11-30T04:03:03.452Z,12.17
2022-11-30T04:05:29.727Z,13.47
2022-11-30T04:07:56.067Z,12.87
2022-11-30T04:10:23.853Z,12.77
2022-11-30T04:12:50.129Z,13.43
2022-11-30T04:15:16.459Z,11.90
2022-11-30T04:17:42.713Z,13.47
2022-11-30T04:20:09.188Z,12.87
2022-11-30T04:22:35.521Z,12.07
2022-11-30T04:25:01.789Z,13.47
2022-11-30T04:27:28.458Z,11.80
2022-11-30T04:29:54.757Z,13.47
2022-11-30T04:32:21.010Z,12.03
2022-11-30T04:34:47.592Z,12.13
2022-11-30T04:37:14.041Z,13.33
2022-11-30T04:39:40.321Z,10.77
2022-11-30T04:42:06.583Z,12.70
2022-11-30T04:44:32.861Z,12.20
2022-11-30T04:46:59.156Z,12.03
2022-11-30T04:49:25.565Z,13.73
2022-11-30T04:51:51.852Z,13.30
2022-11-30T04:54:18.194Z,13.07
2022-11-30T04:56:44.451Z,11.80
2022-11-30T04:59:10.700Z,12.27
2022-11-30T05:01:36.985Z,11.43
2022-11-30T05:04:03.358Z,11.27
2022-11-30T05:06:29.709Z,11.57
2022-11-30T05:08:55.990Z,11.73
2022-11-30T05:11:22.247Z,11.67
2022-11-30T05:13:48.507Z,10.50
2022-11-30T05:16:14.822Z,12.20
2022-11-30T05:18:41.127Z,12.83
2022-11-30T05:21:07.377Z,12.30
2022-11-30T05:23:33.638Z,12.13
2022-11-30T05:26:01.722Z,12.53
2022-11-30T05:28:27.986Z,12.53
2022-11-30T05:30:54.253Z,10.90
2022-11-30T05:33:20.524Z,13.67
2022-11-30T05:35:46.840Z,13.13
2022-11-30T05:38:13.115Z,12.57
2022-11-30T05:40:39.399Z,12.10
2022-11-30T05:43:06.083Z,13.27
2022-11-30T05:45:32.439Z,11.27
2022-11-30T05:47:58.718Z,12.97
2022-11-30T05:50:25.032Z,12.97
2022-11-30T05:52:57.833Z,12.20
2022-11-30T05:55:24.662Z,12.33
2022-11-30T05:57:50.937Z,12.00
2022-11-30T06:00:17.454Z,12.43
2022-11-30T06:02:43.840Z,10.53
2022-11-30T06:05:10.231Z,12.87
2022-11-30T06:07:36.596Z,13.27
2022-11-30T06:10:03.551Z,12.37
2022-11-30T06:12:29.823Z,13.13
2022-11-30T06:14:56.079Z,11.97
2022-11-30T06:17:22.355Z,12.90
2022-11-30T06:19:48.625Z,11.87
2022-11-30T06:22:14.893Z,12.50
2022-11-30T06:24:41.179Z,10.97
2022-11-30T06:27:07.523Z,11.33
2022-11-30T06:29:33.865Z,12.53
2022-11-30T06:32:00.177Z,12.57
2022-11-30T06:34:26.521Z,13.57
2022-11-30T06:36:52.794Z,12.27
2022-11-30T06:39:36.668Z,13.07
2022-11-30T06:42:05.353Z,13.83
2022-11-30T06:44:31.632Z,13.37
2022-11-30T06:46:57.907Z,13.03
2022-11-30T06:49:24.213Z,12.37
2022-11-30T06:51:50.488Z,12.20
2022-11-30T06:54:16.790Z,13.30
2022-11-30T06:56:43.059Z,14.47
2022-11-30T06:59:09.416Z,13.33
2022-11-30T07:01:35.682Z,13.43
2022-11-30T07:04:02.034Z,14.47
2022-11-30T07:06:28.335Z,8.00
2022-11-30T07:08:54.622Z,8.67
2022-11-30T07:11:20.911Z,7.37
2022-11-30T07:13:47.219Z,7.60
2022-11-30T07:16:13.583Z,6.10
2022-11-30T07:18:39.979Z,7.68
2022-11-30T07:21:07.000Z,6.00
2022-11-30T07:23:56.189Z,7.97
2022-11-30T07:26:23.570Z,7.20
2022-11-30T07:28:54.359Z,6.60
2022-11-30T07:31:24.953Z,8.23
2022-11-30T07:33:51.656Z,7.43
2022-11-30T07:36:19.137Z,7.13
2022-11-30T07:38:45.743Z,7.33
2022-11-30T07:41:12.028Z,7.27
2022-11-30T07:43:38.366Z,7.93
2022-11-30T07:46:05.171Z,7.67
2022-11-30T07:48:31.618Z,9.13
2022-11-30T07:51:05.283Z,8.37
2022-11-30T07:53:31.666Z,6.77
2022-11-30T07:56:08.216Z,7.47
2022-11-30T07:58:34.752Z,7.07
2022-11-30T08:01:05.351Z,8.80
2022-11-30T08:03:36.596Z,7.90
2022-11-30T08:06:08.038Z,9.57
2022-11-30T08:08:35.662Z,9.03
2022-11-30T08:11:02.377Z,7.90
2022-11-30T08:13:29.159Z,8.80
2022-11-30T08:15:55.792Z,9.80
2022-11-30T08:18:22.085Z,8.50
2022-11-30T08:20:50.169Z,8.63
2022-11-30T08:23:16.603Z,9.00
2022-11-30T08:25:42.962Z,7.47
2022-11-30T08:28:09.505Z,10.03
2022-11-30T08:30:36.040Z,9.23
2022-11-30T08:33:02.551Z,8.33
2022-11-30T08:35:28.838Z,8.90
2022-11-30T08:37:55.094Z,9.00
2022-11-30T08:40:21.409Z,9.27
2022-11-30T08:42:47.661Z,7.27
2022-11-30T08:45:14.099Z,9.43
2022-11-30T08:47:40.404Z,10.03
2022-11-30T08:50:06.857Z,8.10
2022-11-30T08:52:33.133Z,8.63
2022-11-30T08:54:59.411Z,9.07
2022-11-30T08:57:26.712Z,10.47
2022-11-30T08:59:52.974Z,7.87
2022-11-30T09:02:19.923Z,9.53
2022-11-30T09:04:48.727Z,11.70
2022-11-30T09:07:15.083Z,11.33
2022-11-30T09:09:41.349Z,12.03
2022-11-30T09:12:07.637Z,9.70
2022-11-30T09:14:33.950Z,9.73
2022-11-30T09:17:00.274Z,10.23
2022-11-30T09:19:26.614Z,8.97
2022-11-30T09:21:53.048Z,10.53
2022-11-30T09:24:20.427Z,9.10
2022-11-30T09:26:46.703Z,7.97
2022-11-30T09:29:13.004Z,9.93
2022-11-30T09:31:39.279Z,7.83
2022-11-30T09:34:05.550Z,9.03
2022-11-30T09:36:33.386Z,9.60
2022-11-30T09:38:59.718Z,9.13
2022-11-30T09:41:28.746Z,8.07
2022-11-30T09:44:01.212Z,10.63
2022-11-30T09:46:30.576Z,10.13
2022-11-30T09:49:02.818Z,9.40
2022-11-30T09:51:48.530Z,10.37
2022-11-30T09:56:42.577Z,8.60
2022-11-30T09:59:14.899Z,11.00
2022-11-30T10:01:45.910Z,11.57
2022-11-30T10:04:29.010Z,11.85
2022-11-30T10:07:02.320Z,11.07
2022-11-30T10:09:49.454Z,10.30
2022-11-30T10:12:32.880Z,10.33
2022-11-30T10:15:12.874Z,10.27
2022-11-30T10:18:17.731Z,8.70
2022-11-30T10:21:02.403Z,11.53
2022-11-30T10:23:45.462Z,10.50
2022-11-30T10:26:16.368Z,11.30
2022-11-30T10:28:56.484Z,11.23
2022-11-30T10:31:36.151Z,12.47
2022-11-30T10:34:25.623Z,10.93
2022-11-30T10:37:08.733Z,11.50
2022-11-30T10:39:39.025Z,12.03
2022-11-30T10:42:17.390Z,12.83
2022-11-30T10:44:46.414Z,10.30
2022-11-30T10:47:16.029Z,11.10
2022-11-30T10:49:45.393Z,11.50
2022-11-30T10:52:12.915Z,12.02
2022-11-30T10:54:39.200Z,10.73
2022-11-30T10:57:06.333Z,10.80
2022-11-30T10:59:35.604Z,10.30
2022-11-30T11:02:02.535Z,11.75
2022-11-30T11:04:28.903Z,11.33
2022-11-30T11:07:01.312Z,11.63
2022-11-30T11:09:32.817Z,11.35
2022-11-30T11:12:00.080Z,11.07
2022-11-30T11:14:28.056Z,10.73
2022-11-30T11:16:58.649Z,10.65
2022-11-30T11:19:26.559Z,12.50
2022-11-30T11:21:53.440Z,11.40
2022-11-30T11:24:20.874Z,10.27
2022-11-30T11:26:51.117Z,12.43
2022-11-30T11:29:31.269Z,11.27
2022-11-30T11:32:16.199Z,11.97
2022-11-30T11:34:49.403Z,11.30
2022-11-30T11:37:21.484Z,11.40
2022-11-30T11:40:14.889Z,13.50
2022-11-30T11:42:54.081Z,13.47
2022-11-30T11:45:23.104Z,9.67
2022-11-30T11:47:57.980Z,9.87
2022-11-30T11:50:50.332Z,12.27
2022-11-30T11:53:22.966Z,9.07
2022-11-30T11:56:11.025Z,11.20
2022-11-30T11:58:56.441Z,11.40
2022-11-30T12:01:44.863Z,9.52
2022-11-30T12:04:11.152Z,10.50
2022-11-30T12:06:37.684Z,13.10
2022-11-30T12:09:06.719Z,13.18
2022-11-30T12:11:43.306Z,12.57
2022-11-30T12:14:13.601Z,9.90
2022-11-30T12:16:39.852Z,10.77
2022-11-30T12:19:11.183Z,10.90
2022-11-30T12:21:46.719Z,11.77
2022-11-30T12:24:21.995Z,10.82
2022-11-30T12:27:08.693Z,10.15
2022-11-30T12:29:34.929Z,10.05
2022-11-30T12:32:06.125Z,10.80
2022-11-30T12:34:35.167Z,9.20
2022-11-30T12:37:10.576Z,11.32
2022-11-30T12:39:39.838Z,11.13
2022-11-30T12:42:18.099Z,11.25
2022-11-30T12:45:01.928Z,11.98
2022-11-30T12:47:28.942Z,10.48
2022-11-30T12:49:55.178Z,16.17
2022-11-30T12:52:40.196Z,16.57
2022-11-30T12:55:28.718Z,16.83
2022-11-30T12:57:58.056Z,16.63
2022-11-30T13:00:25.341Z,14.15
2022-11-30T13:03:04.074Z,15.15
2022-11-30T13:05:36.542Z,16.20
2022-11-30T13:08:12.184Z,15.25
2022-11-30T13:10:44.523Z,14.85
2022-11-30T13:13:19.727Z,16.75
2022-11-30T13:15:47.560Z,17.55
2022-11-30T13:18:17.028Z,15.15
2022-11-30T13:20:55.411Z,16.20
2022-11-30T13:23:24.555Z,15.73
2022-11-30T13:26:09.409Z,15.48
2022-11-30T13:28:41.872Z,17.05
2022-11-30T13:31:27.022Z,16.02
2022-11-30T13:33:53.299Z,15.68
2022-11-30T13:36:31.899Z,16.08
2022-11-30T13:39:16.541Z,16.45
2022-11-30T13:41:47.178Z,16.17
2022-11-30T13:44:30.624Z,15.70
2022-11-30T13:46:57.175Z,14.73
2022-11-30T13:49:27.399Z,14.18
2022-11-30T13:52:20.527Z,14.97
2022-11-30T13:54:47.633Z,16.10
2022-11-30T13:57:18.454Z,15.25
2022-11-30T13:59:46.434Z,15.77
2022-11-30T14:02:51.288Z,17.30
2022-11-30T14:05:17.573Z,14.63
2022-11-30T14:07:49.725Z,16.90
2022-11-30T14:10:33.190Z,15.13
2022-11-30T14:13:02.222Z,16.48
2022-11-30T14:15:31.607Z,15.02
2022-11-30T14:17:58.499Z,16.07
2022-11-30T14:20:27.867Z,14.67
2022-11-30T14:22:54.689Z,12.30
2022-11-30T14:25:21.257Z,14.07
2022-11-30T14:27:50.974Z,14.43
2022-11-30T14:30:18.893Z,14.95
2022-11-30T14:32:49.295Z,14.93
2022-11-30T14:35:16.792Z,15.27
2022-11-30T14:37:44.748Z,14.40
2022-11-30T14:40:18.574Z,13.40
2022-11-30T14:42:51.883Z,14.77
2022-11-30T14:45:27.075Z,12.95
2022-11-30T14:50:25.074Z,14.73
2022-11-30T14:53:11.611Z,15.00
2022-11-30T14:55:37.849Z,14.87
2022-11-30T14:58:15.219Z,14.87
2022-11-30T15:00:42.657Z,13.97
2022-11-30T15:03:24.265Z,15.27
2022-11-30T15:05:51.939Z,14.10
2022-11-30T15:08:18.826Z,17.87
2022-11-30T15:10:45.321Z,14.53
2022-11-30T15:13:13.401Z,14.33
2022-11-30T15:15:49.309Z,13.43
2022-11-30T15:18:16.786Z,14.43
2022-11-30T15:20:46.672Z,13.83
2022-11-30T15:23:15.878Z,13.97
2022-11-30T15:25:50.431Z,12.80
2022-11-30T15:28:24.343Z,14.25
2022-11-30T15:30:54.728Z,11.97
2022-11-30T15:33:22.044Z,11.40
2022-11-30T15:36:16.030Z,12.53
2022-11-30T15:38:36.145Z,12.30
2022-11-30T15:41:03.943Z,11.93
2022-11-30T15:43:35.098Z,13.87
2022-11-30T15:46:01.436Z,12.87
2022-11-30T15:48:27.838Z,12.63
2022-11-30T15:50:54.298Z,11.50
2022-11-30T15:53:20.583Z,11.57
2022-11-30T15:55:48.554Z,11.80
2022-11-30T15:58:24.162Z,13.40
2022-11-30T16:01:07.567Z,12.50
2022-11-30T16:03:34.391Z,10.90
2022-11-30T16:06:01.838Z,11.43
2022-11-30T16:08:28.308Z,10.43
2022-11-30T16:10:55.062Z,12.73
2022-11-30T16:13:22.363Z,11.03
2022-11-30T16:15:50.005Z,12.57
2022-11-30T16:18:23.524Z,11.30
2022-11-30T16:20:51.050Z,10.77
2022-11-30T16:23:17.701Z,11.43
2022-11-30T16:25:45.185Z,11.57
2022-11-30T16:28:12.290Z,11.07
2022-11-30T16:30:38.966Z,12.90
2022-11-30T16:33:05.439Z,12.43
2022-11-30T16:35:35.743Z,12.33
2022-11-30T16:38:02.160Z,13.90
2022-11-30T16:40:29.910Z,13.03
2022-11-30T16:42:57.915Z,12.30
2022-11-30T16:45:25.143Z,13.43
2022-11-30T16:47:52.013Z,14.00
2022-11-30T16:50:18.834Z,13.33
2022-11-30T16:52:45.399Z,15.20
2022-11-30T16:55:21.919Z,14.57
2022-11-30T16:57:48.849Z,12.87
2022-11-30T17:00:16.919Z,14.00
2022-11-30T17:02:45.749Z,14.87
2022-11-30T17:05:13.066Z,13.43
2022-11-30T17:07:39.452Z,15.37
2022-11-30T17:10:06.177Z,13.80
2022-11-30T17:12:32.538Z,14.50
2022-11-30T17:14:58.969Z,16.93
2022-11-30T17:17:25.262Z,16.50
2022-11-30T17:19:51.536Z,16.13
2022-11-30T17:22:17.786Z,15.80
2022-11-30T17:24:44.041Z,16.07
2022-11-30T17:27:11.874Z,15.73
2022-11-30T17:29:38.819Z,15.67
2022-11-30T17:32:05.172Z,14.53
2022-11-30T17:34:31.593Z,14.83
2022-11-30T17:36:57.851Z,15.73
2022-11-30T17:39:24.122Z,13.60
2022-11-30T17:41:50.393Z,14.07
2022-11-30T17:44:16.662Z,14.67
2022-11-30T17:46:47.997Z,14.53
2022-11-30T17:49:14.677Z,13.77
2022-11-30T17:51:41.011Z,14.43
2022-11-30T17:54:07.370Z,14.73
2022-11-30T17:56:33.650Z,15.83
2022-11-30T17:59:00.762Z,14.77
2022-11-30T18:01:27.282Z,15.80
2022-11-30T18:03:53.918Z,13.00
2022-11-30T18:06:20.425Z,14.07
2022-11-30T18:08:46.706Z,14.53
2022-11-30T18:11:14.342Z,13.27
2022-11-30T18:13:40.984Z,14.00
2022-11-30T18:16:11.423Z,15.23
2022-11-30T18:18:40.579Z,13.43
2022-11-30T18:21:11.465Z,14.00
2022-11-30T18:23:38.048Z,14.07
2022-11-30T18:26:09.364Z,14.03
2022-11-30T18:28:35.623Z,14.43
2022-11-30T18:31:02.034Z,10.40
2022-11-30T18:33:28.372Z,11.10
2022-11-30T18:35:58.469Z,10.77
2022-11-30T18:38:25.257Z,10.00
2022-11-30T18:40:52.109Z,12.30
2022-11-30T18:43:18.557Z,11.27
2022-11-30T18:45:44.901Z,9.03
2022-11-30T18:48:11.263Z,9.70
2022-11-30T18:50:37.558Z,11.77
2022-11-30T18:53:03.851Z,12.77
2022-11-30T18:55:30.156Z,10.40
2022-11-30T18:57:57.035Z,10.40
2022-11-30T19:00:23.594Z,15.50
2022-11-30T19:02:50.193Z,14.63
2022-11-30T19:05:31.570Z,13.13
2022-11-30T19:08:03.725Z,10.00
2022-11-30T19:10:36.611Z,11.93
2022-11-30T19:13:04.033Z,9.10
2022-11-30T19:15:30.706Z,9.60
2022-11-30T19:17:56.990Z,9.40
2022-11-30T19:20:23.322Z,10.83
2022-11-30T19:22:49.663Z,9.67
2022-11-30T19:25:18.933Z,12.07
2022-11-30T19:27:45.602Z,11.00
2022-11-30T19:30:12.197Z,10.47
2022-11-30T19:32:39.754Z,12.93
2022-11-30T19:35:06.339Z,11.20
2022-11-30T19:37:32.655Z,10.17
2022-11-30T19:39:59.003Z,9.97
2022-11-30T19:42:25.787Z,9.40
2022-11-30T19:44:52.194Z,10.33
2022-11-30T19:47:18.519Z,12.37
2022-11-30T19:49:45.672Z,10.43
2022-11-30T19:52:11.931Z,9.80
2022-11-30T19:54:38.185Z,10.20
2022-11-30T19:57:04.492Z,10.70
2022-11-30T19:59:30.893Z,9.43
2022-11-30T20:01:57.539Z,10.30
2022-11-30T20:04:24.137Z,9.77
2022-11-30T20:06:50.508Z,8.77
2022-11-30T20:09:16.937Z,10.27
2022-11-30T20:11:43.339Z,11.43
2022-11-30T20:14:14.584Z,10.40
2022-11-30T20:16:40.890Z,11.03
2022-11-30T20:19:07.195Z,10.73
2022-11-30T20:21:34.385Z,12.80
2022-11-30T20:24:01.985Z,11.37
2022-11-30T20:26:30.363Z,12.57
2022-11-30T20:28:57.331Z,12.03
2022-11-30T20:31:24.216Z,12.03
2022-11-30T20:33:50.671Z,10.57
2022-11-30T20:36:17.638Z,11.90
2022-11-30T20:38:44.296Z,11.37
2022-11-30T20:41:11.930Z,11.07
2022-11-30T20:43:38.248Z,11.10
2022-11-30T20:46:18.004Z,11.70
2022-11-30T20:48:44.894Z,10.83
2022-11-30T20:53:59.718Z,10.77
2022-11-30T20:56:25.965Z,10.60
2022-11-30T20:58:52.242Z,11.60
2022-11-30T21:01:19.731Z,12.03
2022-11-30T21:03:46.542Z,11.17
2022-11-30T21:06:13.187Z,13.27
2022-11-30T21:08:39.722Z,12.17
2022-11-30T21:11:08.278Z,11.73
2022-11-30T21:13:34.874Z,11.43
2022-11-30T21:16:06.784Z,10.03
2022-11-30T21:18:33.726Z,10.57
2022-11-30T21:21:07.088Z,12.13
2022-11-30T21:23:33.437Z,11.00
2022-11-30T21:26:06.579Z,11.53
2022-11-30T21:28:37.875Z,12.20
2022-11-30T21:31:04.804Z,11.43
2022-11-30T21:33:31.159Z,11.30
2022-11-30T21:35:57.437Z,12.63
2022-11-30T21:38:23.715Z,11.50
2022-11-30T21:40:56.956Z,13.50
2022-11-30T21:43:23.232Z,9.77
2022-11-30T21:46:22.175Z,10.77
2022-11-30T21:48:49.606Z,9.93
2022-11-30T21:51:16.895Z,12.23
2022-11-30T21:53:45.279Z,12.20
2022-11-30T21:56:12.812Z,9.73
2022-11-30T21:58:40.682Z,11.37
2022-11-30T22:01:07.914Z,12.67
2022-11-30T22:03:34.851Z,13.43
2022-11-30T22:06:05.861Z,9.93
2022-11-30T22:08:32.236Z,11.23
2022-11-30T22:11:06.199Z,11.33
2022-11-30T22:13:32.845Z,11.40
2022-11-30T22:16:03.786Z,10.57
2022-11-30T22:18:30.222Z,11.13
2022-11-30T22:21:06.639Z,9.53
2022-11-30T22:23:33.933Z,10.90
2022-11-30T22:26:10.604Z,9.70
2022-11-30T22:28:36.946Z,10.83
2022-11-30T22:31:06.678Z,8.23
2022-11-30T22:33:34.061Z,10.30
2022-11-30T22:36:01.096Z,9.70
2022-11-30T22:38:28.117Z,9.93
2022-11-30T22:40:54.620Z,7.87
2022-11-30T22:43:21.052Z,9.60
2022-11-30T22:45:47.331Z,10.23
2022-11-30T22:48:13.673Z,9.40
2022-11-30T22:50:39.931Z,10.07
2022-11-30T22:53:06.206Z,10.37
2022-11-30T22:55:32.778Z,7.77
2022-11-30T22:57:59.125Z,9.57
2022-11-30T23:00:25.403Z,9.83
2022-11-30T23:02:51.705Z,8.67
2022-11-30T23:05:18.004Z,9.37
2022-11-30T23:07:44.316Z,9.00
2022-11-30T23:10:10.868Z,8.33
2022-11-30T23:12:58.440Z,9.47
2022-11-30T23:15:23.748Z,9.13
2022-11-30T23:17:50.021Z,10.87
2022-11-30T23:20:16.594Z,6.97
2022-11-30T23:22:42.841Z,8.83
2022-11-30T23:25:09.201Z,9.30
2022-11-30T23:27:35.459Z,8.97
2022-11-30T23:30:01.754Z,9.53
2022-11-30T23:32:28.145Z,7.87
2022-11-30T23:34:54.393Z,9.03
2022-11-30T23:37:20.685Z,9.90
2022-11-30T23:39:47.391Z,9.20
2022-11-30T23:42:13.924Z,10.07
2022-11-30T23:44:40.269Z,9.93
2022-11-30T23:47:06.645Z,9.37
2022-11-30T23:49:32.974Z,10.97
2022-11-30T23:51:59.254Z,8.93
2022-11-30T23:54:25.539Z,10.27
2022-11-30T23:56:51.829Z,9.87
2022-11-30T23:59:18.150Z,10.53
